Time;durP1;ratioP1;P1;durP2;ratioP2;P2;SDS_P1;SDS_P2;PMS_P1;PMS_P2;Temp;Humidity;BMP_temperature;BMP_pressure;BME280_temperature;BME280_humidity;BME280_pressure;Samples;Min_cycle;Max_cycle;Signal;HPM_P1;HPM_P2
2022/01/02 00:01:02;;;;;;;;;;;12.30;87.20;;;;;;4944930;28;20043;-76
2022/01/02 00:03:32;;;;;;;13.88;6.90;;;12.30;87.50;;;;;;4947032;28;19973;-74
2022/01/02 00:06:01;;;;;;;15.77;7.18;;;12.40;87.60;;;;;;4949162;28;20039;-75
2022/01/02 00:08:30;;;;;;;15.48;6.72;;;12.40;87.60;;;;;;4945706;28;20204;-74
2022/01/02 00:10:58;;;;;;;15.93;7.03;;;12.40;87.70;;;;;;4945772;28;20039;-75
2022/01/02 00:13:29;;;;;;;14.57;7.03;;;12.50;87.50;;;;;;4945962;28;20031;-74
2022/01/02 00:15:57;;;;;;;14.13;6.53;;;12.50;87.40;;;;;;4946958;28;20050;-74
2022/01/02 00:18:26;;;;;;;16.13;6.95;;;12.40;87.40;;;;;;4945648;28;20031;-74
2022/01/02 00:20:53;;;;;;;12.20;6.55;;;12.40;87.50;;;;;;4945118;28;20451;-76
2022/01/02 00:23:23;;;;;;;15.23;7.28;;;12.30;87.60;;;;;;4941437;28;20038;-75
2022/01/02 00:25:53;;;;;;;14.52;6.53;;;12.30;87.60;;;;;;4948321;28;20089;-77
2022/01/02 00:28:19;;;;;;;12.85;6.03;;;12.20;87.70;;;;;;4946467;28;20044;-74
2022/01/02 00:30:46;;;;;;;14.73;6.90;;;12.20;87.80;;;;;;4948528;28;20039;-74
2022/01/02 00:33:12;;;;;;;14.40;7.00;;;12.20;87.80;;;;;;4948405;28;20506;-72
2022/01/02 00:35:38;;;;;;;12.05;6.40;;;12.20;87.70;;;;;;4948762;28;20040;-73
2022/01/02 00:38:05;;;;;;;13.43;6.43;;;12.20;87.60;;;;;;4946720;28;20102;-74
2022/01/02 00:40:38;;;;;;;14.80;7.18;;;12.20;87.40;;;;;;4949844;28;20058;-74
2022/01/02 00:43:04;;;;;;;12.57;7.03;;;12.20;87.50;;;;;;4947196;28;20491;-73
2022/01/02 00:45:39;;;;;;;12.27;6.43;;;12.20;87.50;;;;;;4949455;28;20031;-75
2022/01/02 00:48:19;;;;;;;13.68;7.10;;;12.20;87.50;;;;;;4944333;28;20082;-74
2022/01/02 00:50:52;;;;;;;16.48;6.93;;;12.10;87.50;;;;;;4948029;28;20050;-72
2022/01/02 00:53:20;;;;;;;14.37;6.83;;;12.10;87.80;;;;;;4948992;28;20109;-73
2022/01/02 00:55:56;;;;;;;13.88;7.00;;;12.20;87.70;;;;;;4947172;29;20306;-73
2022/01/02 00:58:30;;;;;;;12.38;6.60;;;12.20;87.50;;;;;;4945935;28;20046;-75
2022/01/02 01:01:01;;;;;;;13.30;6.63;;;12.10;87.60;;;;;;4947534;28;20053;-75
2022/01/02 01:03:31;;;;;;;19.33;8.48;;;12.20;87.60;;;;;;4947032;28;20063;-75
2022/01/02 01:06:01;;;;;;;14.80;7.00;;;12.10;87.70;;;;;;4948545;28;20049;-74
2022/01/02 01:08:30;;;;;;;16.50;7.55;;;12.10;87.60;;;;;;4947871;28;20489;-73
2022/01/02 01:10:57;;;;;;;14.20;7.15;;;12.10;87.70;;;;;;4947476;28;20119;-76
2022/01/02 01:13:23;;;;;;;16.02;7.90;;;12.10;87.90;;;;;;4947617;28;20042;-73
2022/01/02 01:15:50;;;;;;;13.93;7.22;;;12.10;88.00;;;;;;4948683;28;20039;-74
2022/01/02 01:18:16;;;;;;;17.23;7.43;;;12.10;88.00;;;;;;4947465;28;20560;-77
2022/01/02 01:20:43;;;;;;;14.15;7.43;;;12.10;88.20;;;;;;4946864;28;20074;-73
2022/01/02 01:23:16;;;;;;;14.48;7.15;;;12.00;88.30;;;;;;4944946;28;20091;-74
2022/01/02 01:25:48;;;;;;;15.60;7.20;;;12.10;88.20;;;;;;4945099;28;20448;-75
2022/01/02 01:28:15;;;;;;;16.67;7.47;;;12.10;88.20;;;;;;4962794;28;20031;-74
2022/01/02 01:30:42;;;;;;;12.73;7.03;;;12.10;88.20;;;;;;4947919;28;20047;-74
2022/01/02 01:33:07;;;;;;;14.77;7.07;;;12.10;88.20;;;;;;4951609;28;20043;-75
2022/01/02 01:35:34;;;;;;;17.48;7.45;;;12.10;88.30;;;;;;4942253;28;20101;-75
2022/01/02 01:38:00;;;;;;;14.98;7.53;;;12.10;88.20;;;;;;4949316;28;20042;-74
2022/01/02 01:40:34;;;;;;;12.30;7.13;;;12.10;88.20;;;;;;4948121;28;20033;-73
2022/01/02 01:43:02;;;;;;;15.32;7.32;;;12.10;88.20;;;;;;4945801;28;20058;-73
2022/01/02 01:47:56;;;;;;;11.20;7.15;;;12.10;87.70;;;;;;4948566;28;20050;-74
2022/01/02 01:50:25;;;;;;;11.70;7.72;;;12.10;87.70;;;;;;4944296;28;20047;-75
2022/01/02 01:52:51;;;;;;;19.02;7.72;;;12.10;87.70;;;;;;4947256;28;20043;-74
2022/01/02 01:55:17;;;;;;;11.50;6.97;;;12.10;87.70;;;;;;4947436;28;20444;-75
2022/01/02 01:57:43;;;;;;;12.35;7.18;;;12.10;87.70;;;;;;4946881;28;20035;-76
2022/01/02 02:00:15;;;;;;;12.38;7.28;;;12.00;87.70;;;;;;4945286;28;20043;-74
2022/01/02 02:02:41;;;;;;;15.80;7.20;;;12.10;87.60;;;;;;4945330;28;20047;-74
2022/01/02 02:05:07;;;;;;;13.85;7.78;;;12.00;87.60;;;;;;4946723;28;20837;-75
2022/01/02 02:07:41;;;;;;;14.52;7.57;;;12.00;87.40;;;;;;4945228;28;20380;-74
2022/01/02 02:10:18;;;;;;;12.07;7.75;;;12.00;87.40;;;;;;4947404;28;20042;-75
2022/01/02 02:12:45;;;;;;;12.38;7.07;;;12.00;87.40;;;;;;4942600;28;20046;-71
2022/01/02 02:15:16;;;;;;;14.10;8.07;;;11.90;87.40;;;;;;4944943;28;20479;-74
2022/01/02 02:17:46;;;;;;;12.38;8.23;;;12.00;87.40;;;;;;4944331;28;20036;-75
2022/01/02 02:20:21;;;;;;;13.80;7.60;;;11.90;87.60;;;;;;4946977;28;20657;-72
2022/01/02 02:22:51;;;;;;;16.33;8.68;;;11.90;87.60;;;;;;4946425;28;20043;-73
2022/01/02 02:25:19;;;;;;;12.88;7.88;;;12.00;87.60;;;;;;4946274;28;20063;-75
2022/01/02 02:27:50;;;;;;;14.85;8.25;;;11.90;87.50;;;;;;4941063;28;20035;-75
2022/01/02 02:30:16;;;;;;;15.68;7.82;;;11.90;87.40;;;;;;4939984;28;20218;-72
2022/01/02 02:32:42;;;;;;;13.70;7.15;;;12.00;87.30;;;;;;4944139;29;20043;-74
2022/01/02 02:35:08;;;;;;;11.60;7.18;;;12.00;87.30;;;;;;4945114;28;20067;-73
2022/01/02 02:37:33;;;;;;;14.23;8.98;;;12.00;87.10;;;;;;4942652;28;20035;-75
2022/01/02 02:40:00;;;;;;;13.00;7.43;;;12.10;87.00;;;;;;4946902;28;20045;-75
2022/01/02 02:42:41;;;;;;;12.00;6.97;;;12.00;87.20;;;;;;4945052;28;20043;-75
2022/01/02 02:51:34;;;;;;;12.70;8.07;;;11.90;87.30;;;;;;4933308;28;20043;-74
2022/01/02 02:54:00;;;;;;;13.02;7.68;;;11.90;87.30;;;;;;4947476;28;20102;-76
2022/01/02 02:56:30;;;;;;;12.20;8.13;;;11.90;87.40;;;;;;4961242;28;20043;-73
2022/01/02 02:58:57;;;;;;;15.93;8.65;;;11.80;87.40;;;;;;4970784;28;20478;-75
2022/01/02 03:01:25;;;;;;;12.38;7.43;;;11.90;87.40;;;;;;4964371;28;20043;-73
2022/01/02 03:03:51;;;;;;;13.85;8.07;;;11.80;87.40;;;;;;4979351;28;20136;-74
2022/01/02 03:06:18;;;;;;;12.93;8.77;;;11.80;87.60;;;;;;4950707;28;20545;-78
2022/01/02 03:08:45;;;;;;;13.00;8.05;;;11.80;87.60;;;;;;4966216;28;20049;-74
2022/01/02 03:11:17;;;;;;;11.32;7.82;;;11.90;87.60;;;;;;4965427;28;20123;-75
2022/01/02 03:13:44;;;;;;;14.77;7.88;;;11.80;87.70;;;;;;4967683;28;20046;-76
2022/01/02 03:16:10;;;;;;;12.93;7.90;;;11.80;87.80;;;;;;4969998;28;20042;-76
2022/01/02 03:18:36;;;;;;;11.10;7.53;;;11.80;87.80;;;;;;4975350;28;20585;-73
2022/01/02 03:21:02;;;;;;;15.02;8.65;;;11.70;87.90;;;;;;4970443;28;20051;-74
2022/01/02 03:23:28;;;;;;;16.00;8.95;;;11.70;88.20;;;;;;4966518;28;20406;-73
2022/01/02 03:25:54;;;;;;;15.00;8.82;;;11.70;88.40;;;;;;4966426;28;20042;-74
2022/01/02 03:28:19;;;;;;;12.07;8.90;;;11.70;88.70;;;;;;4966719;28;20473;-72
2022/01/02 03:30:45;;;;;;;14.55;9.35;;;11.70;88.80;;;;;;4974538;28;20047;-76
2022/01/02 03:33:11;;;;;;;15.23;9.38;;;11.60;88.80;;;;;;4955675;28;20059;-74
2022/01/02 03:35:37;;;;;;;15.88;9.85;;;11.60;89.00;;;;;;4948650;28;20727;-74
2022/01/02 03:38:04;;;;;;;14.23;8.73;;;11.60;89.10;;;;;;4971779;28;20039;-74
2022/01/02 03:40:30;;;;;;;13.02;9.27;;;11.50;89.20;;;;;;4945946;28;20415;-74
2022/01/02 03:42:57;;;;;;;12.95;9.32;;;11.60;89.30;;;;;;4979568;28;20120;-73
2022/01/02 03:45:22;;;;;;;17.63;10.02;;;11.60;89.40;;;;;;4965750;28;20393;-74
2022/01/02 03:47:48;;;;;;;17.58;9.82;;;11.50;89.50;;;;;;4966824;28;20042;-74
2022/01/02 03:50:15;;;;;;;16.55;8.80;;;11.50;89.50;;;;;;4964445;28;20141;-73
2022/01/02 03:52:40;;;;;;;13.52;9.35;;;11.40;89.60;;;;;;4967707;28;20748;-74
2022/01/02 03:55:07;;;;;;;14.07;10.15;;;11.50;89.60;;;;;;4943052;28;20043;-75
2022/01/02 03:57:32;;;;;;;16.17;9.93;;;11.50;89.60;;;;;;4945617;28;20038;-74
2022/01/02 03:59:58;;;;;;;19.50;10.32;;;11.50;89.60;;;;;;4965319;28;20035;-74
2022/01/02 04:02:24;;;;;;;16.50;11.15;;;11.40;89.70;;;;;;4949517;28;20090;-74
2022/01/02 04:04:49;;;;;;;15.77;9.57;;;11.40;89.70;;;;;;4948777;28;20040;-74
2022/01/02 04:07:15;;;;;;;17.63;9.85;;;11.40;89.70;;;;;;4949217;28;20557;-74
2022/01/02 04:09:41;;;;;;;13.38;9.90;;;11.40;89.80;;;;;;4949467;28;20067;-74
2022/01/02 04:12:08;;;;;;;14.95;9.80;;;11.40;89.80;;;;;;4947377;28;20043;-74
2022/01/02 04:14:34;;;;;;;14.60;9.75;;;11.40;89.90;;;;;;4949709;28;20391;-74
2022/01/02 04:16:59;;;;;;;14.68;9.90;;;11.40;89.90;;;;;;4943627;28;20035;-75
2022/01/02 04:19:25;;;;;;;13.80;9.45;;;11.30;89.90;;;;;;4948314;28;20045;-77
2022/01/02 04:21:51;;;;;;;15.20;8.38;;;11.30;90.00;;;;;;4949878;28;20106;-75
2022/01/02 04:24:16;;;;;;;13.80;8.52;;;11.30;89.90;;;;;;4948352;28;20126;-75
2022/01/02 04:26:42;;;;;;;14.75;9.02;;;11.30;89.80;;;;;;4947390;28;20040;-74
2022/01/02 04:29:08;;;;;;;14.82;8.85;;;11.30;89.70;;;;;;4945149;28;20114;-75
2022/01/02 04:31:33;;;;;;;14.93;8.77;;;11.30;89.80;;;;;;4947962;28;20043;-76
2022/01/02 04:33:59;;;;;;;13.02;8.98;;;11.30;89.80;;;;;;4950330;28;20483;-73
2022/01/02 04:36:25;;;;;;;14.18;8.77;;;11.30;89.80;;;;;;4946726;28;20186;-74
2022/01/02 04:38:50;;;;;;;17.85;8.75;;;11.30;89.80;;;;;;4948094;28;20050;-73
2022/01/02 04:41:16;;;;;;;16.10;9.43;;;11.30;89.90;;;;;;4949075;28;20090;-73
2022/01/02 04:43:42;;;;;;;12.65;8.48;;;11.20;89.90;;;;;;4946658;28;20039;-76
2022/01/02 04:46:07;;;;;;;13.38;8.38;;;11.20;90.10;;;;;;4947066;28;20031;-74
2022/01/02 04:48:33;;;;;;;14.35;10.15;;;11.20;90.20;;;;;;4948874;28;20035;-74
2022/01/02 04:50:59;;;;;;;13.98;8.52;;;11.10;90.20;;;;;;4948690;28;20055;-73
2022/01/02 04:53:24;;;;;;;16.70;9.13;;;11.10;90.20;;;;;;4948279;28;20547;-77
2022/01/02 04:55:50;;;;;;;12.70;8.48;;;11.10;90.20;;;;;;4948089;28;20039;-75
2022/01/02 04:58:17;;;;;;;14.32;8.35;;;11.20;90.00;;;;;;4946947;28;20144;-74
2022/01/02 05:00:43;;;;;;;15.98;10.10;;;11.10;90.00;;;;;;4959380;28;20542;-75
2022/01/02 05:03:09;;;;;;;17.65;8.98;;;11.10;89.90;;;;;;4959033;28;20082;-74
2022/01/02 05:05:35;;;;;;;16.08;10.52;;;11.10;89.90;;;;;;4948710;28;20051;-77
2022/01/02 05:08:01;;;;;;;16.63;10.80;;;11.20;89.60;;;;;;4950133;28;20043;-73
2022/01/02 05:10:26;;;;;;;17.90;10.63;;;11.20;89.40;;;;;;4947997;28;20049;-73
2022/01/02 05:12:52;;;;;;;16.48;9.15;;;11.30;89.30;;;;;;4946547;28;20035;-73
2022/01/02 05:15:18;;;;;;;15.05;9.30;;;11.20;89.10;;;;;;4949372;28;20342;-74
2022/01/02 05:17:44;;;;;;;14.20;8.65;;;11.20;89.10;;;;;;4948039;28;20423;-73
2022/01/02 05:20:10;;;;;;;12.70;7.15;;;11.20;89.10;;;;;;4948131;28;20085;-74
2022/01/02 05:22:36;;;;;;;12.82;7.63;;;11.30;89.10;;;;;;4950959;28;20463;-74
2022/01/02 05:25:02;;;;;;;15.48;8.02;;;11.30;89.20;;;;;;4940622;28;20042;-73
2022/01/02 05:27:28;;;;;;;12.88;7.93;;;11.20;89.20;;;;;;4947198;28;20024;-75
2022/01/02 05:29:53;;;;;;;13.45;8.02;;;11.20;89.30;;;;;;4946959;28;20403;-74
2022/01/02 05:32:19;;;;;;;12.45;7.30;;;11.20;89.30;;;;;;4945425;28;20049;-73
2022/01/02 05:34:44;;;;;;;11.40;7.25;;;11.20;89.20;;;;;;4947116;28;20031;-74
2022/01/02 05:37:10;;;;;;;13.27;7.35;;;11.20;89.10;;;;;;4941601;28;20043;-74
2022/01/02 05:39:36;;;;;;;11.85;7.72;;;11.30;88.90;;;;;;4947417;28;20509;-75
2022/01/02 05:42:01;;;;;;;12.50;6.90;;;11.30;88.90;;;;;;4947475;28;20051;-74
2022/01/02 05:44:27;;;;;;;13.70;8.80;;;11.20;88.80;;;;;;4944010;28;20711;-74
2022/01/02 05:46:53;;;;;;;13.52;7.40;;;11.30;88.70;;;;;;4945715;28;20482;-73
2022/01/02 05:49:19;;;;;;;14.05;7.47;;;11.30;88.50;;;;;;4947192;28;20043;-74
2022/01/02 05:51:45;;;;;;;11.80;7.32;;;11.30;88.50;;;;;;4945559;29;20514;-74
2022/01/02 05:54:11;;;;;;;15.73;7.10;;;11.20;88.50;;;;;;4947202;28;20153;-74
2022/01/02 05:56:36;;;;;;;13.25;7.50;;;11.20;88.40;;;;;;4939023;28;20047;-73
2022/01/02 05:59:03;;;;;;;13.48;6.50;;;11.30;88.20;;;;;;4947125;28;20066;-73
2022/01/02 06:01:28;;;;;;;11.82;6.65;;;11.30;88.00;;;;;;4944849;28;20069;-73
2022/01/02 06:03:54;;;;;;;9.43;6.45;;;11.30;88.00;;;;;;4945859;28;20036;-74
2022/01/02 06:06:20;;;;;;;13.30;7.25;;;11.20;88.10;;;;;;4941155;28;20060;-75
2022/01/02 06:08:46;;;;;;;12.40;6.47;;;11.20;87.70;;;;;;4947084;28;20222;-73
2022/01/02 06:11:11;;;;;;;13.30;6.90;;;11.20;87.50;;;;;;4946378;28;20503;-74
2022/01/02 06:13:37;;;;;;;13.85;6.32;;;11.20;87.50;;;;;;4941707;28;20067;-73
2022/01/02 06:16:03;;;;;;;10.25;6.57;;;11.20;87.40;;;;;;4942620;28;20510;-74
2022/01/02 06:18:29;;;;;;;11.15;6.32;;;11.10;87.50;;;;;;4938749;28;20541;-75
2022/01/02 06:20:54;;;;;;;12.00;6.68;;;11.20;87.40;;;;;;4940381;28;20101;-74
2022/01/02 06:23:20;;;;;;;11.45;6.88;;;11.20;87.30;;;;;;4946092;28;22851;-73
2022/01/02 06:25:46;;;;;;;12.38;7.22;;;11.20;87.20;;;;;;4947566;28;20058;-73
2022/01/02 06:28:12;;;;;;;11.18;7.22;;;11.20;87.20;;;;;;4943032;28;20073;-73
2022/01/02 06:30:38;;;;;;;11.05;7.10;;;11.20;87.30;;;;;;4939784;28;20058;-74
2022/01/02 06:33:04;;;;;;;12.35;6.95;;;11.20;87.30;;;;;;4945277;28;20051;-74
2022/01/02 06:35:34;;;;;;;13.80;7.18;;;11.20;87.10;;;;;;4947374;28;20090;-74
2022/01/02 06:38:10;;;;;;;11.52;6.78;;;11.20;87.10;;;;;;4946400;28;20478;-74
2022/01/02 06:40:35;;;;;;;14.05;8.15;;;11.10;87.10;;;;;;4944717;28;20042;-73
2022/01/02 06:43:01;;;;;;;9.40;6.63;;;11.20;87.00;;;;;;4946261;28;20455;-75
2022/01/02 06:45:27;;;;;;;11.43;6.93;;;11.20;87.00;;;;;;4945441;28;20663;-75
2022/01/02 06:47:52;;;;;;;12.60;7.07;;;11.20;87.00;;;;;;4944929;29;20514;-74
2022/01/02 06:50:18;;;;;;;10.98;7.22;;;11.10;87.00;;;;;;4945822;28;20411;-74
2022/01/02 06:52:44;;;;;;;12.68;7.03;;;11.20;86.70;;;;;;4946016;28;20043;-73
2022/01/02 06:55:09;;;;;;;10.75;6.78;;;11.30;86.60;;;;;;4946025;28;20090;-73
2022/01/02 06:57:35;;;;;;;13.55;6.68;;;11.30;86.40;;;;;;4945821;28;20035;-72
2022/01/02 07:00:03;;;;;;;9.95;6.57;;;11.30;86.10;;;;;;4946415;28;20132;-72
2022/01/02 07:02:28;;;;;;;10.70;6.88;;;11.40;86.10;;;;;;4944481;28;20086;-78
2022/01/02 07:04:54;;;;;;;10.38;6.45;;;11.30;86.10;;;;;;4946790;28;20043;-74
2022/01/02 07:07:19;;;;;;;15.10;6.75;;;11.40;86.00;;;;;;4945950;28;20106;-75
2022/01/02 07:09:45;;;;;;;10.95;6.75;;;11.40;86.10;;;;;;4945796;28;20126;-74
2022/01/02 07:12:11;;;;;;;11.32;6.82;;;11.40;86.00;;;;;;4945203;28;20514;-74
2022/01/02 07:14:36;;;;;;;10.60;7.10;;;11.40;86.20;;;;;;4945958;28;20047;-79
2022/01/02 07:17:02;;;;;;;15.38;7.28;;;11.30;86.30;;;;;;4946809;28;20047;-74
2022/01/02 07:19:28;;;;;;;11.60;6.90;;;11.30;86.50;;;;;;4945445;28;20118;-75
2022/01/02 07:21:55;;;;;;;12.35;7.15;;;11.30;86.50;;;;;;4947061;28;20398;-76
2022/01/02 07:24:20;;;;;;;11.27;7.15;;;11.30;86.50;;;;;;4945008;28;26954;-75
2022/01/02 07:26:46;;;;;;;11.93;7.78;;;11.30;86.50;;;;;;4943979;28;20043;-74
2022/01/02 07:29:15;;;;;;;12.00;7.82;;;11.30;86.30;;;;;;4945605;28;20114;-74
2022/01/02 07:31:41;;;;;;;10.85;6.65;;;11.30;86.20;;;;;;4948821;28;20082;-74
2022/01/02 07:34:06;;;;;;;10.52;7.25;;;11.30;86.20;;;;;;4945621;28;20042;-75
2022/01/02 07:36:32;;;;;;;15.10;7.55;;;11.20;86.30;;;;;;4947627;28;20035;-77
2022/01/02 07:38:58;;;;;;;11.75;7.57;;;11.10;86.40;;;;;;4948377;28;20128;-75
2022/01/02 07:41:24;;;;;;;13.70;7.53;;;11.10;86.40;;;;;;4947568;28;20047;-74
2022/01/02 07:43:50;;;;;;;14.27;7.40;;;11.10;86.60;;;;;;4948232;28;20411;-73
2022/01/02 07:46:15;;;;;;;10.75;7.30;;;11.10;86.70;;;;;;4942542;28;20043;-73
2022/01/02 07:48:41;;;;;;;11.90;6.68;;;11.00;86.90;;;;;;4945533;29;20470;-74
2022/01/02 07:51:07;;;;;;;11.98;7.95;;;11.00;87.00;;;;;;4947811;28;20047;-74
2022/01/02 07:53:33;;;;;;;10.98;7.70;;;11.00;87.00;;;;;;4947919;28;20054;-73
2022/01/02 07:55:59;;;;;;;13.68;7.90;;;11.00;87.20;;;;;;4947216;28;20079;-74
2022/01/02 07:58:24;;;;;;;13.40;8.40;;;11.00;87.30;;;;;;4947742;28;20031;-73
2022/01/02 08:00:50;;;;;;;12.55;7.47;;;11.00;87.20;;;;;;4948173;28;20054;-73
2022/01/02 08:03:17;;;;;;;14.30;8.00;;;10.90;87.30;;;;;;4946842;28;20201;-76
2022/01/02 08:05:43;;;;;;;11.88;7.75;;;11.00;87.20;;;;;;4947869;28;20043;-74
2022/01/02 08:08:09;;;;;;;13.93;8.30;;;11.00;87.30;;;;;;4947071;28;20053;-73
2022/01/02 08:10:37;;;;;;;11.43;7.40;;;10.90;87.40;;;;;;4947341;28;20182;-74
2022/01/02 08:13:02;;;;;;;15.02;9.20;;;11.00;87.30;;;;;;4946521;28;20476;-77
2022/01/02 08:15:28;;;;;;;12.75;8.50;;;11.00;87.30;;;;;;4944858;28;20097;-78
2022/01/02 08:17:54;;;;;;;13.07;8.48;;;11.00;87.10;;;;;;4947248;29;20110;-74
2022/01/02 08:20:20;;;;;;;12.57;8.52;;;11.10;87.10;;;;;;4946499;28;20040;-77
2022/01/02 08:22:45;;;;;;;14.77;8.50;;;11.10;86.80;;;;;;4947934;28;20110;-76
2022/01/02 08:25:11;;;;;;;12.10;8.10;;;11.20;86.70;;;;;;4946671;28;20039;-74
2022/01/02 08:27:41;;;;;;;13.77;8.23;;;11.30;86.50;;;;;;4947409;28;20078;-74
2022/01/02 08:30:07;;;;;;;13.35;8.43;;;11.40;86.40;;;;;;4947832;28;20074;-78
2022/01/02 08:32:32;;;;;;;14.63;8.75;;;11.40;86.40;;;;;;4940483;29;20040;-75
2022/01/02 08:34:58;;;;;;;13.45;8.10;;;11.50;86.20;;;;;;4948962;28;20088;-74
2022/01/02 08:37:24;;;;;;;15.18;8.27;;;11.60;86.10;;;;;;4947427;28;20043;-73
2022/01/02 08:39:49;;;;;;;14.68;9.35;;;11.60;86.00;;;;;;4944353;28;20035;-74
2022/01/02 08:42:16;;;;;;;13.50;7.55;;;11.50;85.80;;;;;;4948306;28;20110;-74
2022/01/02 08:44:43;;;;;;;11.93;7.38;;;11.50;86.00;;;;;;4945635;29;20122;-73
2022/01/02 08:47:10;;;;;;;12.65;8.18;;;11.60;86.00;;;;;;4947686;28;20082;-74
2022/01/02 08:49:35;;;;;;;13.98;8.18;;;11.60;86.00;;;;;;4948019;28;20066;-73
2022/01/02 08:52:01;;;;;;;14.88;8.23;;;11.60;85.80;;;;;;4947901;28;20159;-73
2022/01/02 08:54:27;;;;;;;14.65;8.38;;;11.70;85.70;;;;;;4948860;28;20047;-74
2022/01/02 08:56:52;;;;;;;13.23;7.63;;;11.70;85.60;;;;;;4940435;28;20098;-73
2022/01/02 08:59:24;;;;;;;12.27;8.20;;;11.70;85.60;;;;;;4941078;28;21513;-73
2022/01/02 09:01:52;;;;;;;13.25;8.32;;;11.80;85.50;;;;;;4940390;28;20599;-73
2022/01/02 09:04:18;;;;;;;13.27;7.97;;;11.80;85.60;;;;;;4939791;28;20039;-73
2022/01/02 09:06:44;;;;;;;11.48;8.13;;;11.80;85.80;;;;;;4940621;28;20039;-74
2022/01/02 09:09:09;;;;;;;10.85;7.70;;;11.90;85.60;;;;;;4939982;28;20463;-73
2022/01/02 09:11:35;;;;;;;15.57;8.35;;;12.00;85.40;;;;;;4935881;28;20467;-72
2022/01/02 09:14:02;;;;;;;14.55;8.63;;;12.00;85.40;;;;;;4933040;28;20553;-73
2022/01/02 09:16:29;;;;;;;15.32;7.90;;;12.00;85.40;;;;;;4934065;28;20040;-73
2022/01/02 09:18:54;;;;;;;13.23;9.15;;;12.00;85.60;;;;;;4934503;28;20046;-74
2022/01/02 09:21:21;;;;;;;13.60;8.50;;;12.10;85.60;;;;;;4933099;28;20047;-74
2022/01/02 09:23:46;;;;;;;14.80;8.50;;;12.10;85.30;;;;;;4926174;28;20058;-73
2022/01/02 09:26:12;;;;;;;12.80;7.55;;;12.10;85.20;;;;;;4933936;28;20422;-73
2022/01/02 09:28:38;;;;;;;18.13;8.27;;;12.10;85.10;;;;;;4939858;28;20049;-72
2022/01/02 09:31:04;;;;;;;11.70;8.32;;;12.20;85.30;;;;;;4935459;28;20047;-73
2022/01/02 09:33:29;;;;;;;10.40;7.28;;;12.10;85.30;;;;;;4939116;28;20035;-73
2022/01/02 09:35:55;;;;;;;13.52;9.13;;;12.30;85.20;;;;;;4937915;28;20039;-73
2022/01/02 09:38:21;;;;;;;14.02;7.22;;;12.30;85.30;;;;;;4939282;28;20122;-72
2022/01/02 09:40:47;;;;;;;13.38;9.38;;;12.50;85.40;;;;;;4940509;28;20067;-73
2022/01/02 09:43:15;;;;;;;13.35;8.80;;;12.70;84.70;;;;;;4935850;28;20043;-72
2022/01/02 09:45:45;;;;;;;18.88;8.13;;;12.70;84.30;;;;;;4937096;28;20511;-73
2022/01/02 09:48:10;;;;;;;12.15;7.38;;;12.80;84.10;;;;;;4937452;28;20495;-74
2022/01/02 09:50:38;;;;;;;13.73;7.93;;;12.80;84.00;;;;;;4939348;28;20122;-74
2022/01/02 09:53:03;;;;;;;12.50;8.13;;;12.80;84.20;;;;;;4938777;28;20043;-73
2022/01/02 09:55:29;;;;;;;16.13;6.68;;;12.80;84.40;;;;;;4944350;28;20042;-74
2022/01/02 09:57:59;;;;;;;15.32;7.88;;;12.80;84.50;;;;;;4942635;28;20105;-73
2022/01/02 10:00:25;;;;;;;12.95;6.57;;;12.80;84.70;;;;;;4942534;28;20047;-73
2022/01/02 10:02:53;;;;;;;14.77;6.55;;;12.90;84.60;;;;;;4946221;28;20050;-74
2022/01/02 10:05:21;;;;;;;11.77;5.95;;;12.90;84.40;;;;;;4945594;28;20487;-73
2022/01/02 10:07:47;;;;;;;12.57;6.38;;;13.00;84.30;;;;;;4948104;28;20039;-73
2022/01/02 10:10:13;;;;;;;13.80;6.00;;;13.00;84.60;;;;;;4948664;28;20031;-73
2022/01/02 10:12:39;;;;;;;14.43;6.50;;;13.10;84.70;;;;;;4948792;28;20070;-74
2022/01/02 10:15:26;;;;;;;13.02;5.70;;;13.20;84.90;;;;;;4943844;28;20443;-73
2022/01/02 10:18:04;;;;;;;13.05;6.82;;;13.30;84.30;;;;;;4949927;28;20173;-73
2022/01/02 10:20:47;;;;;;;12.68;6.63;;;13.30;84.40;;;;;;4949817;28;20097;-74
2022/01/02 10:23:16;;;;;;;14.20;6.03;;;13.30;84.50;;;;;;4964091;28;20035;-73
2022/01/02 10:25:56;;;;;;;14.18;6.07;;;13.50;84.30;;;;;;4964335;28;20089;-73
2022/01/02 10:28:29;;;;;;;11.25;5.68;;;13.60;84.10;;;;;;4966429;28;20030;-73
2022/01/02 10:31:07;;;;;;;14.48;6.03;;;13.60;83.50;;;;;;4964112;28;20042;-72
2022/01/02 10:33:51;;;;;;;10.73;4.93;;;13.60;83.60;;;;;;4961321;28;20039;-74
2022/01/02 10:36:28;;;;;;;11.38;5.53;;;13.60;83.70;;;;;;4964303;28;20514;-73
2022/01/02 10:39:07;;;;;;;14.10;5.65;;;13.60;83.80;;;;;;4967379;28;20030;-74
2022/01/02 10:41:37;;;;;;;15.80;6.55;;;13.60;84.00;;;;;;4966499;28;20038;-74
2022/01/02 10:44:26;;;;;;;18.05;6.28;;;13.60;84.00;;;;;;4962795;28;20061;-74
2022/01/02 10:47:05;;;;;;;16.70;5.75;;;13.60;84.10;;;;;;4967797;28;20569;-75
2022/01/02 10:49:50;;;;;;;13.88;5.72;;;13.60;84.00;;;;;;4964419;28;20031;-74
2022/01/02 10:52:20;;;;;;;14.05;5.68;;;13.60;84.10;;;;;;4947181;28;20042;-74
2022/01/02 10:54:46;;;;;;;12.93;5.40;;;13.70;84.40;;;;;;4964396;28;20046;-74
2022/01/02 10:57:13;;;;;;;13.18;5.07;;;13.70;84.20;;;;;;4967203;28;20674;-75
2022/01/02 10:59:39;;;;;;;13.57;5.03;;;13.80;84.00;;;;;;4970063;28;20475;-74
2022/01/02 11:02:06;;;;;;;14.05;5.20;;;13.70;83.80;;;;;;4965478;28;20038;-75
2022/01/02 11:04:35;;;;;;;13.30;5.10;;;13.80;83.90;;;;;;4973710;28;20035;-75
2022/01/02 11:07:02;;;;;;;12.38;4.65;;;13.80;83.50;;;;;;4972602;28;20034;-74
2022/01/02 11:09:29;;;;;;;14.82;5.15;;;14.00;83.60;;;;;;4976192;28;20039;-74
2022/01/02 11:11:55;;;;;;;12.35;4.80;;;14.10;83.30;;;;;;4971452;28;20042;-75
2022/01/02 11:14:21;;;;;;;11.57;5.07;;;14.30;82.80;;;;;;4974575;28;20059;-75
2022/01/02 11:16:47;;;;;;;11.77;3.90;;;14.30;82.50;;;;;;4967681;28;20046;-75
2022/01/02 11:19:14;;;;;;;11.45;4.03;;;14.20;82.60;;;;;;4970618;28;20404;-74
2022/01/02 11:21:43;;;;;;;11.63;4.28;;;14.20;82.30;;;;;;4970986;28;20093;-74
2022/01/02 11:24:18;;;;;;;9.55;3.28;;;14.20;82.30;;;;;;4969661;28;20118;-73
2022/01/02 11:27:15;;;;;;;15.07;4.78;;;14.20;81.80;;;;;;4968399;28;20121;-74
2022/01/02 11:29:41;;;;;;;10.18;3.28;;;14.20;81.50;;;;;;4952642;28;20194;-74
2022/01/02 11:32:27;;;;;;;11.25;3.65;;;14.10;81.50;;;;;;4970543;28;20498;-74
2022/01/02 11:34:53;;;;;;;11.23;3.65;;;14.50;80.90;;;;;;4970146;28;20050;-74
2022/01/02 11:37:25;;;;;;;8.77;3.25;;;14.60;80.90;;;;;;4977150;28;20039;-74
2022/01/02 11:39:57;;;;;;;10.57;3.20;;;14.60;79.80;;;;;;4972887;28;20070;-73
2022/01/02 11:42:45;;;;;;;11.60;4.43;;;14.60;80.00;;;;;;4969088;28;20098;-75
2022/01/02 11:45:23;;;;;;;11.45;4.25;;;14.60;80.00;;;;;;4955301;28;20153;-74
2022/01/02 11:47:49;;;;;;;12.30;3.95;;;14.80;80.50;;;;;;4955587;28;20098;-74
2022/01/02 11:50:30;;;;;;;10.40;3.45;;;15.00;79.20;;;;;;4976318;28;20054;-75
2022/01/02 11:53:17;;;;;;;12.00;4.03;;;15.10;78.30;;;;;;4976697;28;20177;-74
2022/01/02 11:55:44;;;;;;;11.45;3.92;;;15.10;78.30;;;;;;4949427;28;20134;-73
2022/01/02 11:58:10;;;;;;;12.07;4.00;;;15.10;78.40;;;;;;4949592;28;20043;-74
2022/01/02 12:00:46;;;;;;;9.65;3.13;;;15.10;78.20;;;;;;4949580;28;20046;-75
2022/01/02 12:03:44;;;;;;;12.68;3.53;;;14.90;78.10;;;;;;4941058;28;20043;-74
2022/01/02 12:06:33;;;;;;;15.75;4.25;;;14.70;78.10;;;;;;4943710;28;20047;-73
2022/01/02 12:08:59;;;;;;;8.23;3.05;;;14.90;78.20;;;;;;4943173;28;20040;-73
2022/01/02 12:11:31;;;;;;;13.45;3.75;;;14.80;78.30;;;;;;4955344;28;20089;-74
2022/01/02 12:14:10;;;;;;;12.57;3.65;;;14.80;77.60;;;;;;4939630;28;20043;-74
2022/01/02 12:16:43;;;;;;;10.65;3.70;;;14.80;77.30;;;;;;4938510;28;20063;-74
2022/01/02 12:19:09;;;;;;;8.93;3.45;;;14.70;77.40;;;;;;4936254;28;20043;-74
2022/01/02 12:21:36;;;;;;;15.25;4.25;;;14.70;77.40;;;;;;4941776;28;20086;-74
2022/01/02 12:24:07;;;;;;;11.40;3.22;;;14.70;77.90;;;;;;4941277;28;20043;-73
2022/01/02 12:26:39;;;;;;;10.93;3.47;;;14.80;77.40;;;;;;4940642;28;20032;-74
2022/01/02 12:29:07;;;;;;;14.98;3.67;;;15.00;76.40;;;;;;4941066;28;20043;-73
2022/01/02 12:31:35;;;;;;;11.88;2.85;;;15.00;76.90;;;;;;4943728;28;20055;-73
2022/01/02 12:34:04;;;;;;;10.93;3.22;;;15.10;76.10;;;;;;4946941;28;20035;-73
2022/01/02 12:36:30;;;;;;;13.27;3.63;;;14.80;76.50;;;;;;4947927;28;20090;-73
2022/01/02 12:38:56;;;;;;;12.38;3.13;;;14.90;76.10;;;;;;4948430;28;20039;-73
2022/01/02 12:41:30;;;;;;;13.82;3.78;;;15.00;75.90;;;;;;4947913;28;20494;-73
2022/01/02 12:44:02;;;;;;;13.65;3.40;;;15.00;76.20;;;;;;4945059;28;20118;-73
2022/01/02 12:46:31;;;;;;;13.07;3.42;;;15.00;76.60;;;;;;4947249;28;20486;-73
2022/01/02 12:48:56;;;;;;;13.38;3.30;;;15.00;76.50;;;;;;4944105;28;20114;-72
2022/01/02 12:51:31;;;;;;;10.27;3.13;;;15.00;76.20;;;;;;4947354;28;20499;-72